createdAt,value
2022-11-19T00:01:21.896Z,28.80
2022-11-19T00:03:52.421Z,26.00
2022-11-19T00:06:24.385Z,19.70
2022-11-19T00:08:50.971Z,18.30
2022-11-19T00:11:39.338Z,17.10
2022-11-19T00:14:06.226Z,17.80
2022-11-19T00:16:32.820Z,18.60
2022-11-19T00:18:59.138Z,21.50
2022-11-19T00:21:25.438Z,25.30
2022-11-19T00:23:55.411Z,37.80
2022-11-19T00:26:22.599Z,33.20
2022-11-19T00:28:49.200Z,26.90
2022-11-19T00:31:16.722Z,26.00
2022-11-19T00:33:44.405Z,22.30
2022-11-19T00:36:14.179Z,27.20
2022-11-19T00:38:41.117Z,25.10
2022-11-19T00:41:07.492Z,35.70
2022-11-19T00:43:50.143Z,29.50
2022-11-19T00:46:22.331Z,32.20
2022-11-19T00:48:50.630Z,30.20
2022-11-19T00:51:18.791Z,32.70
2022-11-19T00:53:45.944Z,25.60
2022-11-19T00:56:15.084Z,30.40
2022-11-19T00:58:41.837Z,27.30
2022-11-19T01:01:09.616Z,33.60
2022-11-19T01:03:37.835Z,39.30
2022-11-19T01:06:05.276Z,32.60
2022-11-19T01:08:31.627Z,24.00
2022-11-19T01:11:16.386Z,33.10
2022-11-19T01:13:43.323Z,29.00
2022-11-19T01:16:13.043Z,27.60
2022-11-19T01:18:40.715Z,38.20
2022-11-19T01:21:10.000Z,40.90
2022-11-19T01:23:37.761Z,27.70
2022-11-19T01:26:04.331Z,27.00
2022-11-19T01:28:31.717Z,29.40
2022-11-19T01:30:58.111Z,33.60
2022-11-19T01:33:24.814Z,33.50
2022-11-19T01:35:59.310Z,42.20
2022-11-19T01:38:26.375Z,29.50
2022-11-19T01:40:52.742Z,29.70
2022-11-19T01:43:19.007Z,30.00
2022-11-19T01:45:53.576Z,32.40
2022-11-19T01:48:27.459Z,27.40
2022-11-19T01:50:55.851Z,27.00
2022-11-19T01:53:27.099Z,25.50
2022-11-19T01:55:54.426Z,26.50
2022-11-19T01:58:23.470Z,28.20
2022-11-19T02:00:50.069Z,28.10
2022-11-19T02:03:18.152Z,26.40
2022-11-19T02:05:45.689Z,23.20
2022-11-19T02:08:47.260Z,28.90
2022-11-19T02:11:45.435Z,37.20
2022-11-19T02:14:32.141Z,24.30
2022-11-19T02:17:22.245Z,23.80
2022-11-19T02:19:51.579Z,22.70
2022-11-19T02:22:33.877Z,32.00
2022-11-19T02:25:16.763Z,33.00
2022-11-19T02:28:13.926Z,30.80
2022-11-19T02:30:49.067Z,27.80
2022-11-19T02:33:40.181Z,25.10
2022-11-19T02:36:18.891Z,29.70
2022-11-19T02:38:57.511Z,26.50
2022-11-19T02:41:55.098Z,32.70
2022-11-19T02:44:51.132Z,23.60
2022-11-19T02:47:21.492Z,31.40
2022-11-19T02:49:50.901Z,26.10
2022-11-19T02:52:18.185Z,23.50
2022-11-19T02:54:44.476Z,26.30
2022-11-19T02:57:12.142Z,27.40
2022-11-19T02:59:56.208Z,31.50
2022-11-19T03:02:41.203Z,30.90
2022-11-19T03:05:13.646Z,27.60
2022-11-19T03:07:40.018Z,23.70
2022-11-19T03:10:09.570Z,26.30
2022-11-19T03:12:49.331Z,31.50
2022-11-19T03:15:47.531Z,24.90
2022-11-19T03:18:29.093Z,29.20
2022-11-19T03:21:14.792Z,25.50
2022-11-19T03:23:54.309Z,23.70
2022-11-19T03:26:32.134Z,23.70
2022-11-19T03:29:02.928Z,31.10
2022-11-19T03:31:32.364Z,28.70
2022-11-19T03:34:03.589Z,30.70
2022-11-19T03:36:34.433Z,22.40
2022-11-19T03:39:07.643Z,26.50
2022-11-19T03:41:37.090Z,33.70
2022-11-19T03:44:11.152Z,25.50
2022-11-19T03:46:39.215Z,27.60
2022-11-19T03:49:09.149Z,30.50
2022-11-19T03:51:54.908Z,35.40
2022-11-19T03:54:21.346Z,29.70
2022-11-19T03:56:49.489Z,33.70
2022-11-19T03:59:15.952Z,32.20
2022-11-19T04:01:44.995Z,32.30
2022-11-19T04:04:27.266Z,37.90
2022-11-19T04:06:53.988Z,46.60
2022-11-19T04:09:20.665Z,35.00
2022-11-19T04:14:13.533Z,51.70
2022-11-19T04:16:39.883Z,31.00
2022-11-19T04:19:06.181Z,86.60
2022-11-19T04:21:32.459Z,149.70
2022-11-19T04:23:58.732Z,87.40
2022-11-19T04:26:25.139Z,40.20
2022-11-19T04:28:51.420Z,149.30
2022-11-19T04:31:18.270Z,305.50
2022-11-19T04:33:44.785Z,259.30
2022-11-19T04:36:11.126Z,103.10
2022-11-19T04:38:38.462Z,569.30
2022-11-19T04:41:04.993Z,410.70
2022-11-19T04:43:31.338Z,360.90
2022-11-19T04:45:57.628Z,207.30
2022-11-19T04:48:23.931Z,105.80
2022-11-19T04:50:50.238Z,35.40
2022-11-19T04:53:16.659Z,243.60
2022-11-19T04:55:43.051Z,216.00
2022-11-19T04:58:10.633Z,140.20
2022-11-19T05:00:36.928Z,60.30
2022-11-19T05:03:03.280Z,421.20
2022-11-19T05:05:29.691Z,462.40
2022-11-19T05:07:55.976Z,201.60
2022-11-19T05:10:22.259Z,210.30
2022-11-19T05:12:48.858Z,247.60
2022-11-19T05:15:15.306Z,64.20
2022-11-19T05:17:41.617Z,42.90
2022-11-19T05:20:09.667Z,28.80
2022-11-19T05:22:36.678Z,129.80
2022-11-19T05:25:03.554Z,54.90
2022-11-19T05:27:29.874Z,27.70
2022-11-19T05:29:56.157Z,47.60
2022-11-19T05:32:22.549Z,25.40
2022-11-19T05:34:48.890Z,161.20
2022-11-19T05:37:15.156Z,102.70
2022-11-19T05:39:41.497Z,146.70
2022-11-19T05:42:07.852Z,172.30
2022-11-19T05:44:34.129Z,73.30
2022-11-19T05:47:00.515Z,37.90
2022-11-19T05:49:26.881Z,18.80
2022-11-19T05:51:53.163Z,33.00
2022-11-19T05:54:19.496Z,26.00
2022-11-19T05:56:45.801Z,20.40
2022-11-19T05:59:12.180Z,25.10
2022-11-19T06:01:38.560Z,20.10
2022-11-19T06:04:04.875Z,25.50
2022-11-19T06:06:31.127Z,34.80
2022-11-19T06:08:57.378Z,39.10
2022-11-19T06:11:39.670Z,21.10
2022-11-19T06:14:05.938Z,20.40
2022-11-19T06:16:32.318Z,21.80
2022-11-19T06:18:58.604Z,26.00
2022-11-19T06:21:25.313Z,22.50
2022-11-19T06:23:51.547Z,21.10
2022-11-19T06:26:23.142Z,26.50
2022-11-19T06:28:49.428Z,31.30
2022-11-19T06:31:15.767Z,49.10
2022-11-19T06:33:42.108Z,26.90
2022-11-19T06:36:08.562Z,27.50
2022-11-19T06:38:34.858Z,32.70
2022-11-19T06:41:01.248Z,29.90
2022-11-19T06:43:28.321Z,30.30
2022-11-19T06:45:54.962Z,29.80
2022-11-19T06:48:21.270Z,23.40
2022-11-19T06:50:47.591Z,26.10
2022-11-19T06:53:14.043Z,28.80
2022-11-19T06:55:40.414Z,42.40
2022-11-19T06:58:07.614Z,31.80
2022-11-19T07:00:34.995Z,56.70
2022-11-19T07:03:01.296Z,42.90
2022-11-19T07:05:27.866Z,167.70
2022-11-19T07:07:56.738Z,95.50
2022-11-19T07:10:26.584Z,246.70
2022-11-19T07:12:52.820Z,311.40
2022-11-19T07:15:19.074Z,267.70
2022-11-19T07:17:45.405Z,142.20
2022-11-19T07:20:12.779Z,107.80
2022-11-19T07:22:41.512Z,65.30
2022-11-19T07:25:11.813Z,60.80
2022-11-19T07:27:39.203Z,36.80
2022-11-19T07:30:06.953Z,38.70
2022-11-19T07:32:33.612Z,39.20
2022-11-19T07:34:59.916Z,36.40
2022-11-19T07:37:26.281Z,21.40
2022-11-19T07:39:52.594Z,23.40
2022-11-19T07:42:34.878Z,21.90
2022-11-19T07:45:08.880Z,23.60
2022-11-19T07:47:35.305Z,25.50
2022-11-19T07:50:02.428Z,24.20
2022-11-19T07:52:29.930Z,27.10
2022-11-19T07:54:56.313Z,31.50
2022-11-19T07:57:29.694Z,28.70
2022-11-19T07:59:56.704Z,29.00
2022-11-19T08:02:23.027Z,33.50
2022-11-19T08:04:49.323Z,42.60
2022-11-19T08:07:15.925Z,36.00
2022-11-19T08:09:42.294Z,31.20
2022-11-19T08:12:08.644Z,39.30
2022-11-19T08:14:34.991Z,60.90
2022-11-19T08:17:17.297Z,76.70
2022-11-19T08:19:43.586Z,39.70
2022-11-19T08:22:10.915Z,60.20
2022-11-19T08:24:37.288Z,82.40
2022-11-19T08:27:04.761Z,39.20
2022-11-19T08:29:31.584Z,114.20
2022-11-19T08:31:57.887Z,37.20
2022-11-19T08:34:24.364Z,30.80
2022-11-19T08:36:50.752Z,24.30
2022-11-19T08:39:17.012Z,59.10
2022-11-19T08:41:59.308Z,137.60
2022-11-19T08:44:25.714Z,47.20
2022-11-19T08:46:52.278Z,32.50
2022-11-19T08:49:18.624Z,34.20
2022-11-19T08:51:44.905Z,36.10
2022-11-19T08:54:12.515Z,57.40
2022-11-19T08:56:38.845Z,43.00
2022-11-19T08:59:05.079Z,41.20
2022-11-19T09:01:31.422Z,40.50
2022-11-19T09:03:57.954Z,33.00
2022-11-19T09:06:24.261Z,31.10
2022-11-19T09:08:50.883Z,32.90
2022-11-19T09:11:19.658Z,35.20
2022-11-19T09:13:46.064Z,46.30
2022-11-19T09:16:13.158Z,29.80
2022-11-19T09:18:41.345Z,28.20
2022-11-19T09:21:10.448Z,30.00
2022-11-19T09:23:37.452Z,95.00
2022-11-19T09:26:08.830Z,71.10
2022-11-19T09:28:35.719Z,68.90
2022-11-19T09:31:09.685Z,69.70
2022-11-19T09:33:38.715Z,57.60
2022-11-19T09:36:05.331Z,62.00
2022-11-19T09:38:34.423Z,31.70
2022-11-19T09:41:16.698Z,26.90
2022-11-19T09:44:08.899Z,101.50
2022-11-19T09:46:45.245Z,80.20
2022-11-19T09:49:24.373Z,76.30
2022-11-19T09:51:57.731Z,45.50
2022-11-19T09:54:24.884Z,64.10
2022-11-19T09:56:57.114Z,63.40
2022-11-19T09:59:32.651Z,67.80
2022-11-19T10:01:59.002Z,40.30
2022-11-19T10:04:29.988Z,56.90
2022-11-19T10:07:18.409Z,51.50
2022-11-19T10:09:55.282Z,89.10
2022-11-19T10:12:43.543Z,41.50
2022-11-19T10:15:31.909Z,46.20
2022-11-19T10:18:15.216Z,33.60
2022-11-19T10:21:21.981Z,30.90
2022-11-19T10:23:50.433Z,34.10
2022-11-19T10:26:22.130Z,28.70
2022-11-19T10:28:54.329Z,28.60
2022-11-19T10:31:38.849Z,41.80
2022-11-19T10:34:22.618Z,34.80
2022-11-19T10:40:00.937Z,32.00
2022-11-19T10:42:47.449Z,50.60
2022-11-19T10:45:30.551Z,94.70
2022-11-19T10:48:13.818Z,50.80
2022-11-19T10:50:41.568Z,38.20
2022-11-19T10:53:21.486Z,32.10
2022-11-19T10:55:55.077Z,22.10
2022-11-19T10:58:32.795Z,35.60
2022-11-19T11:01:02.472Z,44.50
2022-11-19T11:03:42.903Z,71.60
2022-11-19T11:06:10.273Z,78.80
2022-11-19T11:08:53.882Z,70.30
2022-11-19T11:11:49.678Z,39.00
2022-11-19T11:14:35.279Z,31.60
2022-11-19T11:17:03.418Z,29.80
2022-11-19T11:19:31.517Z,30.10
2022-11-19T11:21:58.091Z,28.50
2022-11-19T11:24:40.335Z,40.40
2022-11-19T11:27:22.707Z,64.70
2022-11-19T11:29:53.807Z,46.10
2022-11-19T11:32:29.939Z,45.80
2022-11-19T11:34:57.058Z,63.70
2022-11-19T11:37:26.388Z,55.90
2022-11-19T11:39:55.044Z,47.70
2022-11-19T11:42:26.324Z,76.70
2022-11-19T11:44:57.138Z,46.60
2022-11-19T11:47:32.320Z,63.70
2022-11-19T11:50:13.765Z,23.20
2022-11-19T11:52:41.892Z,29.00
2022-11-19T11:55:14.447Z,36.20
2022-11-19T11:57:58.006Z,54.90
2022-11-19T12:00:43.556Z,87.60
2022-11-19T12:03:18.081Z,147.20
2022-11-19T12:06:03.352Z,147.20
2022-11-19T12:09:01.626Z,79.40
2022-11-19T12:11:55.014Z,46.30
2022-11-19T12:14:42.226Z,35.50
2022-11-19T12:17:19.255Z,68.70
2022-11-19T12:20:01.566Z,55.80
2022-11-19T12:22:50.987Z,34.20
2022-11-19T12:25:29.505Z,25.80
2022-11-19T12:28:19.512Z,21.00
2022-11-19T12:31:13.471Z,22.40
2022-11-19T12:36:22.196Z,22.20
2022-11-19T12:39:04.403Z,23.00
2022-11-19T12:41:44.132Z,18.90
2022-11-19T12:44:32.662Z,20.10
2022-11-19T12:47:17.244Z,17.80
2022-11-19T12:49:59.662Z,18.50
2022-11-19T12:52:51.976Z,15.60
2022-11-19T12:55:21.189Z,16.90
2022-11-19T12:58:24.798Z,14.40
2022-11-19T13:00:58.143Z,13.60
2022-11-19T13:03:47.733Z,16.60
2022-11-19T13:06:24.274Z,14.70
2022-11-19T13:09:00.710Z,16.20
2022-11-19T13:11:35.763Z,23.50
2022-11-19T13:14:13.250Z,16.30
2022-11-19T13:16:41.658Z,21.80
2022-11-19T13:19:27.085Z,14.00
2022-11-19T13:21:58.966Z,18.00
2022-11-19T13:24:37.374Z,13.20
2022-11-19T13:27:09.045Z,21.70
2022-11-19T13:29:42.002Z,17.40
2022-11-19T13:32:40.309Z,15.90
2022-11-19T13:35:26.598Z,12.70
2022-11-19T13:38:11.089Z,19.60
2022-11-19T13:40:51.309Z,14.40
2022-11-19T13:43:36.247Z,43.70
2022-11-19T13:46:15.434Z,44.70
2022-11-19T13:48:57.083Z,19.10
2022-11-19T13:51:42.475Z,24.90
2022-11-19T13:54:24.754Z,14.00
2022-11-19T13:56:55.325Z,18.90
2022-11-19T13:59:45.422Z,13.30
2022-11-19T14:02:44.673Z,15.70
2022-11-19T14:05:26.845Z,13.20
2022-11-19T14:08:04.977Z,14.60
2022-11-19T14:11:03.334Z,11.20
2022-11-19T14:13:51.274Z,16.70
2022-11-19T14:16:56.664Z,17.70
2022-11-19T14:19:38.934Z,81.00
2022-11-19T14:22:53.115Z,27.20
2022-11-19T14:25:54.066Z,13.50
2022-11-19T14:28:43.991Z,18.10
2022-11-19T14:31:10.780Z,14.60
2022-11-19T14:33:56.566Z,24.90
2022-11-19T14:36:41.944Z,22.50
2022-11-19T14:39:29.181Z,27.90
2022-11-19T14:42:18.986Z,26.50
2022-11-19T14:45:05.941Z,39.30
2022-11-19T14:47:35.477Z,43.60
2022-11-19T14:50:06.403Z,67.40
2022-11-19T14:52:39.117Z,63.50
2022-11-19T14:55:20.679Z,39.30
2022-11-19T14:58:04.794Z,51.50
2022-11-19T15:00:40.566Z,23.90
2022-11-19T15:03:14.855Z,29.40
2022-11-19T15:05:44.799Z,28.80
2022-11-19T15:08:17.306Z,24.10
2022-11-19T15:11:02.540Z,35.90
2022-11-19T15:13:31.516Z,57.90
2022-11-19T15:16:20.606Z,70.80
2022-11-19T15:18:58.889Z,64.70
2022-11-19T15:21:44.265Z,113.70
2022-11-19T15:24:23.445Z,43.50
2022-11-19T15:27:05.787Z,26.90
2022-11-19T15:29:51.068Z,17.70
2022-11-19T15:32:23.125Z,17.30
2022-11-19T15:35:18.598Z,11.60
2022-11-19T15:37:50.914Z,16.40
2022-11-19T15:40:29.925Z,13.80
2022-11-19T15:43:32.467Z,17.90
2022-11-19T15:46:18.138Z,14.20
2022-11-19T15:49:03.385Z,11.50
2022-11-19T15:51:36.641Z,14.40
2022-11-19T15:54:06.599Z,12.30
2022-11-19T15:56:45.629Z,8.00
2022-11-19T15:59:13.849Z,6.10
2022-11-19T16:01:41.139Z,11.20
2022-11-19T16:04:15.892Z,12.60
2022-11-19T16:06:44.903Z,12.30
2022-11-19T16:09:22.568Z,15.90
2022-11-19T16:12:05.497Z,6.20
2022-11-19T16:14:47.813Z,12.70
2022-11-19T16:17:31.559Z,9.60
2022-11-19T16:20:27.255Z,7.90
2022-11-19T16:23:05.178Z,14.20
2022-11-19T16:25:47.360Z,9.90
2022-11-19T16:28:17.775Z,10.30
2022-11-19T16:30:50.018Z,20.70
2022-11-19T16:33:25.291Z,12.90
2022-11-19T16:36:09.256Z,12.30
2022-11-19T16:38:37.419Z,17.60
2022-11-19T16:41:20.451Z,11.80
2022-11-19T16:43:48.919Z,23.00
2022-11-19T16:46:19.561Z,20.70
2022-11-19T16:48:48.867Z,15.90
2022-11-19T16:51:31.397Z,25.60
2022-11-19T16:53:57.808Z,17.80
2022-11-19T16:56:24.754Z,14.20
2022-11-19T16:58:58.763Z,11.50
2022-11-19T17:01:29.426Z,13.70
2022-11-19T17:04:04.282Z,15.50
2022-11-19T17:06:32.460Z,21.70
2022-11-19T17:09:00.806Z,19.30
2022-11-19T17:12:03.688Z,12.80
2022-11-19T17:14:29.938Z,17.60
2022-11-19T17:16:56.642Z,21.10
2022-11-19T17:19:31.430Z,26.90
2022-11-19T17:21:57.692Z,22.20
2022-11-19T17:24:27.900Z,23.30
2022-11-19T17:26:54.987Z,25.00
2022-11-19T17:29:23.498Z,35.20
2022-11-19T17:31:53.593Z,26.00
2022-11-19T17:34:30.572Z,21.50
2022-11-19T17:36:57.377Z,21.30
2022-11-19T17:39:25.400Z,19.70
2022-11-19T17:42:10.786Z,27.90
2022-11-19T17:44:39.008Z,15.80
2022-11-19T17:47:23.258Z,24.00
2022-11-19T17:49:51.395Z,23.20
2022-11-19T17:52:24.383Z,26.00
2022-11-19T17:54:53.185Z,36.20
2022-11-19T17:57:19.751Z,23.40
2022-11-19T17:59:46.002Z,21.30
2022-11-19T18:02:15.006Z,18.60
2022-11-19T18:04:43.450Z,22.20
2022-11-19T18:07:11.234Z,25.00
2022-11-19T18:09:38.811Z,22.20
2022-11-19T18:12:21.077Z,17.30
2022-11-19T18:14:47.332Z,28.00
2022-11-19T18:17:15.098Z,25.00
2022-11-19T18:19:41.685Z,31.00
2022-11-19T18:22:17.821Z,28.40
2022-11-19T18:24:49.535Z,25.00
2022-11-19T18:27:16.455Z,18.70
2022-11-19T18:29:43.010Z,35.40
2022-11-19T18:32:15.159Z,23.50
2022-11-19T18:34:42.578Z,19.00
2022-11-19T18:37:08.916Z,29.90
2022-11-19T18:39:35.263Z,19.00
2022-11-19T18:42:01.599Z,24.00
2022-11-19T18:44:33.944Z,28.10
2022-11-19T18:47:06.033Z,24.00
2022-11-19T18:49:34.243Z,18.60
2022-11-19T18:52:10.184Z,25.40
2022-11-19T18:54:36.818Z,24.40
2022-11-19T18:57:03.664Z,18.40
2022-11-19T18:59:29.986Z,18.10
2022-11-19T19:01:56.678Z,20.90
2022-11-19T19:04:23.345Z,25.30
2022-11-19T19:06:49.666Z,22.00
2022-11-19T19:09:19.637Z,23.80
2022-11-19T19:12:11.381Z,38.10
2022-11-19T19:14:40.213Z,26.80
2022-11-19T19:17:06.625Z,30.30
2022-11-19T19:19:32.949Z,35.60
2022-11-19T19:21:59.726Z,61.30
2022-11-19T19:24:26.154Z,27.70
2022-11-19T19:26:52.515Z,32.20
2022-11-19T19:29:18.833Z,30.80
2022-11-19T19:31:45.081Z,28.70
2022-11-19T19:34:11.343Z,31.90
2022-11-19T19:36:37.914Z,52.90
2022-11-19T19:39:04.289Z,97.00
2022-11-19T19:41:30.634Z,73.20
2022-11-19T19:44:00.601Z,90.00
2022-11-19T19:46:26.928Z,66.40
2022-11-19T19:48:55.003Z,42.80
2022-11-19T19:51:23.621Z,42.00
2022-11-19T19:53:50.807Z,34.50
2022-11-19T19:56:23.181Z,31.20
2022-11-19T19:58:51.216Z,44.60
2022-11-19T20:01:23.737Z,29.50
2022-11-19T20:03:54.484Z,26.50
2022-11-19T20:06:22.860Z,26.50
2022-11-19T20:08:49.625Z,29.60
2022-11-19T20:11:23.813Z,34.30
2022-11-19T20:13:51.021Z,31.80
2022-11-19T20:16:19.869Z,28.80
2022-11-19T20:18:48.518Z,37.20
2022-11-19T20:21:17.842Z,44.20
2022-11-19T20:23:45.270Z,27.40
2022-11-19T20:26:14.639Z,36.10
2022-11-19T20:28:41.830Z,32.20
2022-11-19T20:31:10.354Z,33.20
2022-11-19T20:33:37.861Z,32.90
2022-11-19T20:36:05.708Z,29.00
2022-11-19T20:38:35.555Z,35.80
2022-11-19T20:41:04.386Z,33.40
2022-11-19T20:43:51.552Z,23.50
2022-11-19T20:46:20.622Z,47.90
2022-11-19T20:48:47.567Z,48.40
2022-11-19T20:51:15.557Z,41.30
2022-11-19T20:53:42.702Z,39.90
2022-11-19T20:56:10.162Z,34.40
2022-11-19T20:58:36.520Z,33.70
2022-11-19T21:01:09.616Z,32.00
2022-11-19T21:03:36.779Z,102.50
2022-11-19T21:06:06.691Z,105.90
2022-11-19T21:08:35.133Z,110.80
2022-11-19T21:11:05.041Z,46.80
2022-11-19T21:13:31.730Z,48.00
2022-11-19T21:15:58.943Z,43.60
2022-11-19T21:18:26.221Z,35.10
2022-11-19T21:21:00.749Z,35.30
2022-11-19T21:23:28.058Z,32.80
2022-11-19T21:26:06.688Z,30.70
2022-11-19T21:28:34.167Z,47.50
2022-11-19T21:31:01.691Z,41.40
2022-11-19T21:33:28.039Z,32.50
2022-11-19T21:35:58.878Z,30.10
2022-11-19T21:38:25.654Z,34.80
2022-11-19T21:40:54.923Z,28.70
2022-11-19T21:43:22.957Z,36.00
2022-11-19T21:45:51.373Z,42.00
2022-11-19T21:48:17.662Z,37.50
2022-11-19T21:50:44.319Z,36.30
2022-11-19T21:53:13.156Z,36.90
2022-11-19T21:55:43.958Z,44.10
2022-11-19T21:58:12.007Z,42.50
2022-11-19T22:00:38.997Z,45.00
2022-11-19T22:03:05.829Z,33.20
2022-11-19T22:05:32.242Z,40.80
2022-11-19T22:07:59.414Z,31.20
2022-11-19T22:10:26.723Z,46.10
2022-11-19T22:12:53.053Z,41.70
2022-11-19T22:15:19.373Z,41.90
2022-11-19T22:17:45.837Z,43.00
2022-11-19T22:20:12.453Z,58.90
2022-11-19T22:22:44.254Z,35.40
2022-11-19T22:25:11.946Z,48.60
2022-11-19T22:27:38.283Z,36.60
2022-11-19T22:30:06.288Z,31.60
2022-11-19T22:32:32.970Z,33.30
2022-11-19T22:34:59.275Z,43.50
2022-11-19T22:37:25.578Z,35.90
2022-11-19T22:39:51.905Z,31.80
2022-11-19T22:42:18.179Z,39.20
2022-11-19T22:44:44.543Z,34.90
2022-11-19T22:47:10.814Z,29.20
2022-11-19T22:49:37.137Z,36.70
2022-11-19T22:52:03.625Z,39.10
2022-11-19T22:54:29.912Z,40.20
2022-11-19T22:56:56.212Z,38.80
2022-11-19T22:59:22.824Z,39.20
2022-11-19T23:01:49.315Z,34.90
2022-11-19T23:04:15.733Z,32.00
2022-11-19T23:06:42.118Z,47.00
2022-11-19T23:09:08.534Z,34.70
2022-11-19T23:11:51.102Z,41.50
2022-11-19T23:14:17.952Z,45.40
2022-11-19T23:16:44.621Z,48.30
2022-11-19T23:19:12.927Z,44.80
2022-11-19T23:21:40.244Z,42.50
2022-11-19T23:24:06.801Z,41.00
2022-11-19T23:26:33.541Z,39.90
2022-11-19T23:29:00.424Z,43.30
2022-11-19T23:31:32.724Z,35.70
2022-11-19T23:33:59.719Z,41.90
2022-11-19T23:36:31.861Z,39.00
2022-11-19T23:38:59.115Z,52.10
2022-11-19T23:41:26.062Z,35.40
2022-11-19T23:43:54.375Z,40.80
2022-11-19T23:46:28.507Z,50.40
2022-11-19T23:48:56.200Z,47.30
2022-11-19T23:51:25.680Z,39.50
2022-11-19T23:53:52.836Z,38.40
2022-11-19T23:56:20.952Z,41.90
2022-11-19T23:58:48.284Z,41.00
